Time;durP1;ratioP1;P1;durP2;ratioP2;P2;SDS_P1;SDS_P2;PMS_P1;PMS_P2;Temp;Humidity;BMP_temperature;BMP_pressure;BME280_temperature;BME280_humidity;BME280_pressure;Samples;Min_cycle;Max_cycle;Signal;HPM_P1;HPM_P2
2024/03/19 00:00:50;;;;;;;1.65;0.70;;;23.00;55.70;;;;;;5106589;28;20091;-51
2024/03/19 00:03:17;;;;;;;9.02;2.05;;;23.00;55.40;;;;;;5084511;28;20221;-54
2024/03/19 00:05:44;;;;;;;2.90;1.25;;;23.20;55.60;;;;;;5104677;28;20403;-52
2024/03/19 00:08:10;;;;;;;1.35;0.90;;;23.30;55.10;;;;;;5107476;28;20064;-53
2024/03/19 00:10:37;;;;;;;2.05;0.70;;;23.60;55.00;;;;;;5100202;28;20101;-55
2024/03/19 00:13:03;;;;;;;3.65;0.80;;;23.80;54.50;;;;;;5103661;28;20060;-52
2024/03/19 00:15:30;;;;;;;1.67;0.80;;;23.80;54.50;;;;;;5109296;27;20102;-49
2024/03/19 00:17:56;;;;;;;1.52;0.50;;;23.70;54.50;;;;;;5106483;28;20068;-55
2024/03/19 00:20:23;;;;;;;3.83;0.70;;;23.60;54.90;;;;;;5114820;27;20424;-52
2024/03/19 00:22:49;;;;;;;1.02;0.65;;;23.50;54.90;;;;;;5116882;27;20076;-58
2024/03/19 00:25:15;;;;;;;1.95;0.77;;;23.30;55.30;;;;;;5110752;28;20071;-55
2024/03/19 00:27:42;;;;;;;1.75;0.90;;;23.20;55.40;;;;;;5111994;28;20100;-51
2024/03/19 00:30:13;;;;;;;2.10;1.00;;;23.10;55.70;;;;;;5101241;28;20522;-53
2024/03/19 00:32:40;;;;;;;1.88;0.77;;;23.00;55.80;;;;;;5104662;28;20087;-49
2024/03/19 00:35:09;;;;;;;3.72;0.98;;;23.00;55.70;;;;;;5104935;28;20541;-51
2024/03/19 00:37:42;;;;;;;1.10;0.90;;;22.90;55.60;;;;;;5100821;28;20099;-51
2024/03/19 00:40:12;;;;;;;1.75;1.00;;;22.90;55.50;;;;;;5104975;28;20069;-51
2024/03/19 00:42:43;;;;;;;1.20;0.95;;;23.20;55.80;;;;;;5101459;28;20083;-54
2024/03/19 00:45:10;;;;;;;3.35;1.20;;;23.30;55.30;;;;;;5101029;28;20084;-52
2024/03/19 00:47:37;;;;;;;3.15;1.35;;;23.30;55.40;;;;;;5102180;28;20519;-55
2024/03/19 00:50:05;;;;;;;1.35;0.60;;;23.30;55.00;;;;;;5101538;28;20171;-52
2024/03/19 00:52:32;;;;;;;1.42;0.63;;;23.30;55.10;;;;;;5100297;28;20064;-51
2024/03/19 00:54:59;;;;;;;3.55;1.00;;;23.30;54.80;;;;;;5103686;28;20524;-50
2024/03/19 00:57:26;;;;;;;2.78;0.85;;;23.30;54.90;;;;;;5107058;28;20068;-53
2024/03/19 00:59:52;;;;;;;4.95;0.88;;;23.20;54.70;;;;;;5105722;28;20586;-49
2024/03/19 01:02:19;;;;;;;2.08;1.02;;;23.20;54.60;;;;;;5106449;28;20072;-51
2024/03/19 01:04:45;;;;;;;1.38;0.68;;;23.20;54.60;;;;;;5105590;27;20077;-50
2024/03/19 01:07:12;;;;;;;1.63;0.80;;;23.20;54.30;;;;;;5109288;27;20068;-50
2024/03/19 01:09:39;;;;;;;4.25;0.90;;;23.20;54.30;;;;;;5104160;28;20076;-51
2024/03/19 01:12:08;;;;;;;1.17;0.60;;;23.20;54.30;;;;;;5103622;27;20163;-55
2024/03/19 01:14:35;;;;;;;1.00;0.40;;;23.10;54.40;;;;;;5104182;28;20076;-52
2024/03/19 01:17:03;;;;;;;1.88;0.70;;;23.00;54.80;;;;;;5100099;27;20064;-51
2024/03/19 01:19:30;;;;;;;1.42;0.60;;;22.90;54.90;;;;;;5106368;28;20087;-50
2024/03/19 01:21:56;;;;;;;2.55;0.70;;;22.90;55.10;;;;;;5105524;27;20533;-55
2024/03/19 01:24:23;;;;;;;2.95;0.73;;;22.90;55.40;;;;;;5108479;28;20164;-50
2024/03/19 01:26:50;;;;;;;4.28;0.85;;;22.70;55.10;;;;;;5108021;28;20072;-50
2024/03/19 01:29:17;;;;;;;1.73;0.50;;;22.70;55.50;;;;;;5104782;28;20122;-52
2024/03/19 01:31:44;;;;;;;1.42;0.80;;;22.60;55.80;;;;;;5103857;28;20072;-50
2024/03/19 01:34:10;;;;;;;2.92;0.88;;;22.60;56.10;;;;;;5107079;28;21242;-50
2024/03/19 01:36:37;;;;;;;1.92;0.88;;;22.50;56.30;;;;;;5104399;28;20092;-50
2024/03/19 01:39:03;;;;;;;1.48;1.00;;;22.50;56.30;;;;;;5107635;28;20076;-53
2024/03/19 01:41:29;;;;;;;2.63;1.20;;;22.40;56.30;;;;;;5102478;28;20064;-53
2024/03/19 01:43:56;;;;;;;3.92;1.33;;;22.30;56.40;;;;;;5101429;28;20099;-54
2024/03/19 01:46:28;;;;;;;2.83;1.15;;;22.30;56.60;;;;;;5104181;28;20557;-57
2024/03/19 01:48:55;;;;;;;3.17;1.02;;;22.20;56.60;;;;;;5102274;28;20717;-55
2024/03/19 01:51:25;;;;;;;4.38;1.00;;;22.10;56.70;;;;;;5105012;28;20133;-52
2024/03/19 01:53:53;;;;;;;0.75;0.70;;;22.10;56.90;;;;;;5099347;27;20072;-50
2024/03/19 01:56:20;;;;;;;3.58;1.08;;;22.00;57.10;;;;;;5103983;27;20105;-50
2024/03/19 01:58:48;;;;;;;3.63;1.30;;;21.90;57.40;;;;;;5102193;28;20171;-50
2024/03/19 02:01:17;;;;;;;3.83;1.45;;;21.90;57.60;;;;;;5104303;28;20092;-50
2024/03/19 02:03:45;;;;;;;3.03;1.52;;;21.80;57.90;;;;;;5107284;28;20462;-52
2024/03/19 02:06:15;;;;;;;3.00;1.40;;;21.70;58.10;;;;;;5104597;27;20155;-49
2024/03/19 02:08:58;;;;;;;1.48;0.95;;;21.70;58.30;;;;;;5099475;28;20533;-50
2024/03/19 02:11:25;;;;;;;7.88;1.60;;;21.60;58.60;;;;;;5105653;28;20406;-51
2024/03/19 02:13:53;;;;;;;5.07;2.58;;;21.50;58.80;;;;;;5105841;27;20526;-51
2024/03/19 02:16:20;;;;;;;6.47;3.03;;;21.50;59.00;;;;;;5105891;28;20095;-50
2024/03/19 02:19:05;;;;;;;4.40;2.05;;;21.40;59.10;;;;;;5107321;28;20121;-51
2024/03/19 02:21:33;;;;;;;5.18;2.00;;;21.40;59.10;;;;;;5104857;27;20068;-51
2024/03/19 02:24:01;;;;;;;7.55;1.58;;;21.40;59.10;;;;;;5105591;28;20526;-50
2024/03/19 02:26:30;;;;;;;3.55;1.40;;;21.30;59.40;;;;;;5106596;28;20133;-51
2024/03/19 02:29:00;;;;;;;3.67;1.50;;;21.20;59.60;;;;;;5105399;28;20113;-49
2024/03/19 02:31:29;;;;;;;6.85;1.02;;;21.20;60.30;;;;;;5105909;28;20107;-51
2024/03/19 02:33:56;;;;;;;5.40;1.00;;;21.10;61.10;;;;;;5097447;28;20073;-53
2024/03/19 02:36:23;;;;;;;5.80;1.08;;;21.00;61.90;;;;;;5106283;28;20096;-55
2024/03/19 02:38:51;;;;;;;2.85;0.75;;;20.90;62.30;;;;;;5105040;28;20114;-53
2024/03/19 02:41:18;;;;;;;7.43;1.30;;;20.80;62.50;;;;;;5106795;27;20159;-52
2024/03/19 02:43:44;;;;;;;16.77;2.30;;;20.80;62.50;;;;;;5103174;28;20085;-50
2024/03/19 02:46:11;;;;;;;6.43;2.05;;;20.70;62.80;;;;;;5105517;28;20125;-53
2024/03/19 02:48:37;;;;;;;4.03;1.48;;;20.70;62.90;;;;;;5118170;27;20072;-52
2024/03/19 02:51:04;;;;;;;6.00;1.58;;;20.50;63.10;;;;;;5102880;28;20163;-52
2024/03/19 02:53:30;;;;;;;4.32;0.88;;;20.50;62.90;;;;;;5104811;28;20095;-56
2024/03/19 02:55:57;;;;;;;7.80;1.52;;;20.50;63.10;;;;;;5104247;27;20107;-52
2024/03/19 02:58:24;;;;;;;5.40;1.25;;;20.40;63.60;;;;;;5102490;28;20080;-52
2024/03/19 03:00:53;;;;;;;8.75;1.17;;;20.40;63.70;;;;;;5099250;28;20101;-53
2024/03/19 03:03:20;;;;;;;1.90;1.00;;;20.30;63.90;;;;;;5105942;28;20068;-53
2024/03/19 03:05:47;;;;;;;2.25;0.88;;;20.30;63.70;;;;;;5089949;28;20206;-53
2024/03/19 03:08:14;;;;;;;5.47;0.93;;;20.30;63.60;;;;;;5104962;27;20175;-53
2024/03/19 03:10:41;;;;;;;4.47;1.38;;;20.20;64.10;;;;;;5100764;28;20074;-51
2024/03/19 03:13:08;;;;;;;4.07;1.38;;;20.20;63.90;;;;;;5104680;28;20094;-51
2024/03/19 03:15:34;;;;;;;7.32;1.23;;;20.10;64.10;;;;;;5100172;28;20127;-54
2024/03/19 03:18:01;;;;;;;2.45;1.10;;;20.00;64.10;;;;;;5102578;28;20083;-52
2024/03/19 03:20:27;;;;;;;2.95;1.30;;;20.00;64.30;;;;;;5099406;28;20524;-54
2024/03/19 03:22:54;;;;;;;5.07;1.35;;;19.90;64.50;;;;;;5106580;28;20114;-51
2024/03/19 03:25:21;;;;;;;5.78;1.70;;;19.90;64.50;;;;;;5102160;28;20068;-50
2024/03/19 03:27:48;;;;;;;5.88;1.50;;;19.90;64.40;;;;;;5104396;27;20108;-50
2024/03/19 03:30:15;;;;;;;3.30;1.60;;;19.80;64.20;;;;;;5102787;27;20571;-50
2024/03/19 03:32:45;;;;;;;6.68;1.23;;;19.80;64.20;;;;;;5102100;28;20075;-51
2024/03/19 03:35:13;;;;;;;1.67;0.98;;;19.70;64.10;;;;;;5085476;28;20182;-49
2024/03/19 03:37:40;;;;;;;2.38;0.80;;;19.70;64.20;;;;;;5105164;28;20076;-50
2024/03/19 03:40:19;;;;;;;4.78;1.40;;;19.70;63.90;;;;;;5103332;28;20537;-52
2024/03/19 03:42:47;;;;;;;5.22;1.73;;;19.60;64.40;;;;;;5105232;28;20068;-53
2024/03/19 03:45:14;;;;;;;2.83;1.55;;;19.60;64.40;;;;;;5106519;28;20103;-50
2024/03/19 03:47:41;;;;;;;4.47;1.40;;;19.50;64.50;;;;;;5106046;28;20080;-50
2024/03/19 03:50:09;;;;;;;2.60;1.40;;;19.50;64.40;;;;;;5100948;28;20076;-57
2024/03/19 03:52:37;;;;;;;2.85;1.38;;;19.50;64.80;;;;;;5101627;28;20137;-55
2024/03/19 03:55:05;;;;;;;2.85;1.85;;;19.40;65.00;;;;;;5101486;28;20104;-57
2024/03/19 03:57:36;;;;;;;5.35;1.70;;;19.40;65.10;;;;;;5103564;28;20159;-56
2024/03/19 04:00:11;;;;;;;2.60;1.30;;;19.30;65.10;;;;;;5102893;28;20072;-50
2024/03/19 04:02:39;;;;;;;4.28;1.00;;;19.30;65.30;;;;;;5100447;28;20064;-51
2024/03/19 04:05:09;;;;;;;2.38;1.08;;;19.30;65.00;;;;;;5106273;28;20080;-53
2024/03/19 04:07:39;;;;;;;5.50;1.10;;;19.30;65.10;;;;;;5102809;28;20064;-53
2024/03/19 04:10:24;;;;;;;6.53;1.20;;;19.20;65.10;;;;;;5103005;28;20158;-50
2024/03/19 04:12:50;;;;;;;4.93;1.85;;;19.10;65.40;;;;;;5100296;28;20086;-52
2024/03/19 04:15:17;;;;;;;4.68;2.55;;;19.10;65.90;;;;;;5103328;28;20099;-50
2024/03/19 04:17:43;;;;;;;8.43;3.00;;;19.00;65.60;;;;;;5101372;28;20072;-50
2024/03/19 04:20:11;;;;;;;7.05;3.50;;;19.00;65.80;;;;;;5102245;28;20071;-50
2024/03/19 04:22:38;;;;;;;9.52;3.90;;;19.00;66.20;;;;;;5103912;28;20078;-54
2024/03/19 04:25:09;;;;;;;10.77;6.32;;;18.90;66.00;;;;;;5106014;28;20072;-53
2024/03/19 04:27:37;;;;;;;22.65;9.35;;;18.90;66.40;;;;;;5100686;28;20087;-50
2024/03/19 04:30:05;;;;;;;27.45;11.88;;;18.80;66.40;;;;;;5100950;28;20064;-53
2024/03/19 04:32:32;;;;;;;27.45;9.20;;;18.80;66.50;;;;;;5103184;28;20163;-50
2024/03/19 04:34:58;;;;;;;26.80;15.65;;;18.80;66.70;;;;;;5106450;28;20108;-58
2024/03/19 04:37:25;;;;;;;33.38;16.48;;;18.70;66.70;;;;;;5105800;28;20103;-54
2024/03/19 04:39:51;;;;;;;26.50;16.13;;;18.70;66.90;;;;;;5105667;27;20202;-51
2024/03/19 04:42:19;;;;;;;28.20;14.20;;;18.70;67.00;;;;;;5109828;28;20071;-52
2024/03/19 04:44:46;;;;;;;23.75;10.63;;;18.60;67.40;;;;;;5103995;28;20111;-50
2024/03/19 04:47:17;;;;;;;32.90;8.57;;;19.00;68.40;;;;;;5111480;27;20083;-47
2024/03/19 04:49:44;;;;;;;20.88;5.38;;;20.20;66.30;;;;;;5110852;28;20067;-50
2024/03/19 04:52:10;;;;;;;10.05;2.28;;;21.10;63.30;;;;;;5108906;28;20175;-49
2024/03/19 04:54:37;;;;;;;7.35;2.15;;;21.20;61.40;;;;;;5111545;28;20076;-49
2024/03/19 04:57:04;;;;;;;9.32;2.03;;;21.00;61.50;;;;;;5105228;28;20536;-47
2024/03/19 04:59:30;;;;;;;7.78;1.40;;;21.00;61.50;;;;;;5107276;28;20532;-47
2024/03/19 05:01:57;;;;;;;11.10;1.35;;;20.80;61.60;;;;;;5104987;28;20072;-49
2024/03/19 05:04:23;;;;;;;5.45;1.60;;;20.60;61.70;;;;;;5110414;28;20095;-53
2024/03/19 05:06:50;;;;;;;6.20;1.60;;;20.50;62.00;;;;;;5110815;28;20072;-49
2024/03/19 05:09:16;;;;;;;4.63;1.65;;;20.50;62.00;;;;;;5110155;28;20076;-47
2024/03/19 05:11:43;;;;;;;6.40;1.98;;;20.60;61.90;;;;;;5107050;28;20076;-49
2024/03/19 05:14:09;;;;;;;4.25;2.05;;;20.60;62.20;;;;;;5101223;28;20068;-51
2024/03/19 05:16:36;;;;;;;25.77;2.58;;;21.00;62.20;;;;;;5111267;27;20100;-46
2024/03/19 05:19:02;;;;;;;14.20;2.75;;;21.30;61.40;;;;;;5111022;27;20159;-48
2024/03/19 05:21:29;;;;;;;13.48;2.20;;;21.40;60.80;;;;;;5107676;28;20084;-46
2024/03/19 05:23:55;;;;;;;9.90;1.30;;;21.40;61.30;;;;;;5105218;28;20068;-50
2024/03/19 05:26:21;;;;;;;4.85;1.55;;;21.50;60.40;;;;;;5105260;28;20163;-49
2024/03/19 05:28:48;;;;;;;10.18;1.58;;;21.30;60.20;;;;;;5105223;27;20150;-47
2024/03/19 05:31:28;;;;;;;4.75;1.17;;;21.10;61.70;;;;;;5103844;28;20171;-48
2024/03/19 05:33:56;;;;;;;7.50;1.33;;;20.90;62.10;;;;;;5105437;28;20067;-48
2024/03/19 05:36:24;;;;;;;4.45;1.40;;;21.10;61.60;;;;;;5101073;28;20187;-45
2024/03/19 05:38:50;;;;;;;6.85;1.40;;;20.90;61.50;;;;;;5105441;28;20121;-46
2024/03/19 05:41:17;;;;;;;6.30;1.02;;;20.30;62.80;;;;;;5104921;28;20064;-52
2024/03/19 05:43:46;;;;;;;6.57;1.25;;;20.10;63.70;;;;;;5108580;27;20064;-50
2024/03/19 05:46:12;;;;;;;5.70;1.17;;;20.10;64.40;;;;;;5108909;27;20072;-48
2024/03/19 05:48:40;;;;;;;5.28;1.38;;;20.10;64.70;;;;;;5109278;28;20425;-49
2024/03/19 05:51:07;;;;;;;3.53;1.40;;;20.00;65.30;;;;;;5104126;28;20065;-48
2024/03/19 05:53:35;;;;;;;3.38;1.08;;;19.80;65.80;;;;;;5107010;28;20128;-46
2024/03/19 05:56:04;;;;;;;10.98;1.58;;;19.80;66.20;;;;;;5102724;27;20107;-46
2024/03/19 05:58:31;;;;;;;7.88;1.75;;;19.70;65.90;;;;;;5105227;28;20080;-47
2024/03/19 06:00:58;;;;;;;6.70;1.77;;;19.50;66.20;;;;;;5106031;27;20084;-47
2024/03/19 06:03:25;;;;;;;3.78;1.60;;;19.50;68.10;;;;;;5111498;28;20072;-47
2024/03/19 06:06:11;;;;;;;4.40;1.20;;;19.30;68.40;;;;;;5107397;28;20550;-55
2024/03/19 06:08:39;;;;;;;6.20;1.45;;;19.30;69.30;;;;;;5107062;27;20083;-54
2024/03/19 06:11:09;;;;;;;6.60;1.58;;;19.20;69.70;;;;;;5105811;28;20519;-50
2024/03/19 06:13:36;;;;;;;4.80;1.50;;;19.10;69.60;;;;;;5103933;28;20076;-48
2024/03/19 06:16:04;;;;;;;7.18;1.55;;;19.00;69.80;;;;;;5108142;27;20099;-47
2024/03/19 06:18:31;;;;;;;3.00;1.40;;;18.90;69.10;;;;;;5106243;28;20156;-47
2024/03/19 06:20:58;;;;;;;4.05;1.25;;;18.80;69.20;;;;;;5107205;27;20514;-54
2024/03/19 06:23:27;;;;;;;4.53;1.40;;;18.70;69.70;;;;;;5100247;28;20076;-49
2024/03/19 06:25:54;;;;;;;5.25;1.55;;;18.80;69.70;;;;;;5108408;27;20083;-45
2024/03/19 06:28:20;;;;;;;8.23;1.90;;;18.80;70.00;;;;;;5110704;28;20107;-47
2024/03/19 06:30:47;;;;;;;8.55;1.58;;;18.60;71.10;;;;;;5107152;27;20087;-46
2024/03/19 06:33:13;;;;;;;7.45;1.73;;;18.50;71.30;;;;;;5106970;28;20730;-47
2024/03/19 06:35:41;;;;;;;10.05;1.98;;;18.40;72.20;;;;;;5103207;27;20088;-48
2024/03/19 06:38:08;;;;;;;4.38;2.00;;;18.40;72.00;;;;;;5107731;28;20467;-46
2024/03/19 06:40:34;;;;;;;10.52;5.20;;;18.30;72.50;;;;;;5108084;28;20072;-46
2024/03/19 06:43:01;;;;;;;20.23;13.60;;;18.10;72.20;;;;;;5108928;28;20071;-46
2024/03/19 06:45:29;;;;;;;10.50;5.47;;;18.00;72.60;;;;;;5108545;27;20155;-46
2024/03/19 06:47:57;;;;;;;20.42;5.80;;;17.90;73.40;;;;;;5103510;28;20068;-48
2024/03/19 06:50:24;;;;;;;10.07;3.30;;;17.90;73.60;;;;;;5106991;28;20094;-47
2024/03/19 06:52:50;;;;;;;11.52;2.45;;;18.00;73.20;;;;;;5107065;28;20548;-47
2024/03/19 06:55:20;;;;;;;10.60;2.63;;;18.00;73.70;;;;;;5096938;28;20104;-46
2024/03/19 06:57:49;;;;;;;8.38;2.33;;;18.00;73.90;;;;;;5104481;28;20087;-47
2024/03/19 07:00:18;;;;;;;12.35;2.47;;;17.90;74.30;;;;;;5105874;28;20072;-46
2024/03/19 07:02:51;;;;;;;11.20;3.00;;;17.90;74.50;;;;;;5100442;28;20068;-46
2024/03/19 07:05:18;;;;;;;36.85;20.50;;;17.70;73.40;;;;;;5104198;28;20125;-48
2024/03/19 07:07:45;;;;;;;16.85;3.38;;;17.70;73.70;;;;;;5103962;28;20201;-53
2024/03/19 07:10:12;;;;;;;16.50;3.72;;;17.60;74.00;;;;;;5108158;28;20068;-47
2024/03/19 07:12:43;;;;;;;11.35;3.03;;;17.70;73.30;;;;;;5107642;28;20096;-46
2024/03/19 07:15:10;;;;;;;15.23;3.05;;;17.80;72.70;;;;;;5105551;27;20116;-54
2024/03/19 07:17:40;;;;;;;10.25;2.70;;;17.80;72.90;;;;;;5107785;28;20068;-46
2024/03/19 07:20:12;;;;;;;8.63;2.50;;;17.70;73.50;;;;;;5109237;27;20155;-47
2024/03/19 07:22:42;;;;;;;5.10;2.22;;;17.60;73.60;;;;;;5104971;28;20613;-47
2024/03/19 07:25:10;;;;;;;9.48;1.88;;;17.50;72.90;;;;;;5107424;28;20068;-46
2024/03/19 07:27:42;;;;;;;4.90;1.90;;;17.40;72.70;;;;;;5108156;28;20087;-47
2024/03/19 07:30:11;;;;;;;9.77;2.30;;;17.50;72.80;;;;;;5106576;28;20167;-45
2024/03/19 07:32:41;;;;;;;2.83;1.80;;;17.50;72.50;;;;;;5106820;28;20463;-47
2024/03/19 07:35:09;;;;;;;4.50;2.15;;;17.40;72.30;;;;;;5107095;28;20100;-49
2024/03/19 07:37:39;;;;;;;4.22;1.77;;;17.50;72.70;;;;;;5106644;28;20155;-47
2024/03/19 07:40:12;;;;;;;3.90;1.98;;;17.70;71.80;;;;;;5090395;28;20078;-53
2024/03/19 07:42:42;;;;;;;12.18;1.90;;;17.60;71.30;;;;;;5105021;28;20087;-47
2024/03/19 07:45:09;;;;;;;6.78;1.80;;;17.70;71.50;;;;;;5107576;28;20455;-47
2024/03/19 07:47:36;;;;;;;4.65;2.03;;;17.70;71.30;;;;;;5106032;28;20068;-46
2024/03/19 07:50:10;;;;;;;5.72;1.92;;;17.70;71.20;;;;;;5106109;28;20430;-54
2024/03/19 07:52:37;;;;;;;7.50;2.08;;;17.60;71.20;;;;;;5107784;28;20587;-46
2024/03/19 07:55:04;;;;;;;3.83;1.88;;;17.50;71.30;;;;;;5104720;28;20214;-49
2024/03/19 07:57:31;;;;;;;6.68;2.00;;;17.50;71.20;;;;;;5105618;28;20201;-48
2024/03/19 08:00:05;;;;;;;2.97;1.40;;;17.50;71.00;;;;;;5106112;28;20371;-47
2024/03/19 08:02:32;;;;;;;4.57;1.67;;;17.60;71.00;;;;;;5105539;28;20082;-50
2024/03/19 08:04:59;;;;;;;3.75;1.75;;;17.50;71.10;;;;;;5103773;28;20159;-47
2024/03/19 08:07:26;;;;;;;5.97;1.60;;;17.50;71.10;;;;;;5106387;28;20072;-46
2024/03/19 08:09:52;;;;;;;3.67;1.50;;;17.50;71.60;;;;;;5106972;28;20078;-47
2024/03/19 08:12:20;;;;;;;2.53;1.35;;;17.50;72.10;;;;;;5106993;28;21195;-48
2024/03/19 08:14:46;;;;;;;2.67;1.42;;;17.40;72.00;;;;;;5107643;28;20092;-49
2024/03/19 08:17:13;;;;;;;4.82;1.80;;;17.40;72.60;;;;;;5106955;28;20076;-45
2024/03/19 08:19:39;;;;;;;3.80;1.63;;;17.50;72.20;;;;;;5107939;28;20082;-45
2024/03/19 08:22:06;;;;;;;4.82;2.13;;;17.40;71.80;;;;;;5105986;28;20072;-45
2024/03/19 08:24:33;;;;;;;8.30;2.03;;;17.30;71.70;;;;;;5106098;28;20068;-45
2024/03/19 08:26:59;;;;;;;4.70;2.08;;;17.20;72.00;;;;;;5106169;28;20068;-46
2024/03/19 08:29:26;;;;;;;3.00;1.70;;;17.10;72.50;;;;;;5107742;28;20135;-46
2024/03/19 08:31:52;;;;;;;3.65;2.08;;;17.20;72.50;;;;;;5104710;28;20352;-46
2024/03/19 08:34:19;;;;;;;29.38;17.70;;;17.20;72.80;;;;;;5104368;28;20103;-45
2024/03/19 08:36:45;;;;;;;6.20;2.33;;;17.10;73.10;;;;;;5104841;28;20103;-45
2024/03/19 08:39:12;;;;;;;4.05;1.98;;;17.20;73.20;;;;;;5107007;28;20073;-46
2024/03/19 08:41:38;;;;;;;3.72;1.77;;;17.20;73.00;;;;;;5108205;28;20080;-46
2024/03/19 08:44:05;;;;;;;2.63;1.38;;;17.10;73.40;;;;;;5102820;28;20072;-49
2024/03/19 08:46:31;;;;;;;3.95;1.45;;;16.90;74.00;;;;;;5107039;28;20071;-49
2024/03/19 08:48:58;;;;;;;4.40;1.17;;;17.00;74.00;;;;;;5109096;28;20123;-47
2024/03/19 08:51:24;;;;;;;2.83;1.10;;;16.90;74.30;;;;;;5109914;27;20518;-49
2024/03/19 08:53:51;;;;;;;1.10;0.90;;;16.80;74.40;;;;;;5105522;28;20098;-47
2024/03/19 08:56:17;;;;;;;1.00;0.90;;;16.80;74.20;;;;;;5102415;28;20100;-47
2024/03/19 08:58:44;;;;;;;4.53;1.02;;;16.70;74.90;;;;;;5107501;28;20075;-46
2024/03/19 09:01:14;;;;;;;2.97;0.95;;;16.70;75.20;;;;;;5106638;28;20064;-48
2024/03/19 09:03:41;;;;;;;2.95;1.00;;;16.80;75.10;;;;;;5106357;28;20068;-46
2024/03/19 09:06:08;;;;;;;5.68;1.00;;;16.70;75.10;;;;;;5107155;28;20171;-48
2024/03/19 09:08:34;;;;;;;5.55;1.20;;;16.60;75.50;;;;;;5106117;28;20111;-48
2024/03/19 09:11:01;;;;;;;1.40;0.80;;;16.70;75.70;;;;;;5122702;27;20072;-48
2024/03/19 09:13:27;;;;;;;4.32;1.00;;;16.70;76.40;;;;;;5105076;28;20162;-49
2024/03/19 09:15:54;;;;;;;0.80;0.70;;;16.60;76.80;;;;;;5106853;28;20091;-45
2024/03/19 09:18:21;;;;;;;3.83;1.05;;;16.40;78.00;;;;;;5102963;27;20087;-47
2024/03/19 09:20:48;;;;;;;2.30;1.08;;;16.40;77.80;;;;;;5104379;27;20121;-47
2024/03/19 09:23:14;;;;;;;3.20;1.15;;;16.40;77.60;;;;;;5107810;28;20078;-48
2024/03/19 09:25:42;;;;;;;2.83;0.95;;;16.40;77.80;;;;;;5106863;28;20076;-46
2024/03/19 09:28:09;;;;;;;1.90;1.08;;;16.30;77.60;;;;;;5111404;27;20107;-46
2024/03/19 09:30:36;;;;;;;1.58;1.35;;;16.30;77.80;;;;;;5110029;28;20155;-47
2024/03/19 09:33:03;;;;;;;5.45;1.20;;;16.30;77.80;;;;;;5111178;27;20182;-46
2024/03/19 09:35:30;;;;;;;3.10;1.10;;;16.20;78.20;;;;;;5107082;27;20578;-50
2024/03/19 09:37:58;;;;;;;1.77;1.00;;;16.30;78.40;;;;;;5107150;27;20091;-48
2024/03/19 09:40:25;;;;;;;3.50;1.20;;;16.10;79.70;;;;;;5107714;28;20075;-45
2024/03/19 09:42:52;;;;;;;7.63;1.38;;;16.10;79.30;;;;;;5109908;28;20071;-45
2024/03/19 09:45:29;;;;;;;2.25;1.30;;;16.00;79.30;;;;;;5106269;27;20068;-48
2024/03/19 09:47:57;;;;;;;6.85;1.10;;;16.00;80.10;;;;;;5109305;27;20080;-50
2024/03/19 09:50:28;;;;;;;3.53;1.15;;;16.00;80.00;;;;;;5110841;28;20080;-46
2024/03/19 09:52:58;;;;;;;7.53;1.70;;;16.00;80.00;;;;;;5110771;28;20125;-46
2024/03/19 09:55:26;;;;;;;2.55;1.38;;;15.90;80.20;;;;;;5111677;27;20180;-47
2024/03/19 09:57:55;;;;;;;4.00;1.60;;;15.90;80.90;;;;;;5110037;27;20064;-55
2024/03/19 10:00:30;;;;;;;4.45;1.35;;;15.90;80.50;;;;;;5112135;28;20128;-47
2024/03/19 10:02:58;;;;;;;9.60;1.50;;;15.90;81.50;;;;;;5108016;27;20059;-48
2024/03/19 10:05:24;;;;;;;3.92;1.30;;;15.90;80.90;;;;;;5108667;28;20900;-47
2024/03/19 10:07:53;;;;;;;6.22;1.55;;;15.90;81.00;;;;;;5109582;28;20145;-52
2024/03/19 10:10:20;;;;;;;4.38;1.60;;;15.90;80.70;;;;;;5110113;28;20068;-45
2024/03/19 10:12:46;;;;;;;6.40;1.30;;;15.80;81.30;;;;;;5109700;28;20072;-46
2024/03/19 10:15:20;;;;;;;4.90;1.48;;;15.80;81.90;;;;;;5109100;28;20096;-45
2024/03/19 10:17:48;;;;;;;7.18;2.00;;;15.80;82.50;;;;;;5109563;28;20104;-46
2024/03/19 10:20:16;;;;;;;6.05;1.60;;;15.80;82.00;;;;;;5110454;28;20072;-47
2024/03/19 10:22:46;;;;;;;6.15;1.63;;;15.80;82.10;;;;;;5108807;28;20198;-50
2024/03/19 10:25:16;;;;;;;5.55;1.65;;;15.80;81.80;;;;;;5109704;28;20068;-47
2024/03/19 10:27:47;;;;;;;3.53;1.50;;;15.80;81.90;;;;;;5109396;27;20478;-54
2024/03/19 10:30:16;;;;;;;5.68;1.83;;;15.70;82.60;;;;;;5109628;28;20107;-44
2024/03/19 10:32:44;;;;;;;11.10;1.98;;;15.70;82.70;;;;;;5107010;28;20083;-47
2024/03/19 10:35:24;;;;;;;4.30;2.08;;;15.60;82.70;;;;;;5108101;28;20111;-48
2024/03/19 10:37:53;;;;;;;7.22;1.70;;;15.40;83.70;;;;;;5102581;28;20102;-45
2024/03/19 10:40:22;;;;;;;11.25;2.35;;;15.30;84.60;;;;;;5109241;28;20068;-44
2024/03/19 10:42:50;;;;;;;14.63;2.85;;;15.30;84.00;;;;;;5109014;28;20683;-49
2024/03/19 10:45:22;;;;;;;12.32;2.70;;;15.30;84.20;;;;;;5103584;27;20538;-45
2024/03/19 10:47:50;;;;;;;9.65;2.60;;;15.30;83.80;;;;;;5108847;28;20072;-47
2024/03/19 10:50:18;;;;;;;6.13;2.80;;;15.30;84.70;;;;;;5104931;28;20655;-45
2024/03/19 10:53:00;;;;;;;8.55;2.95;;;15.40;84.40;;;;;;5109151;28;20399;-46
2024/03/19 10:55:27;;;;;;;12.52;2.63;;;15.30;84.20;;;;;;5106011;28;20096;-49
2024/03/19 10:57:54;;;;;;;11.88;3.25;;;15.30;85.00;;;;;;5107833;27;20191;-45
2024/03/19 11:00:22;;;;;;;10.30;3.28;;;15.10;86.00;;;;;;5106171;28;20148;-48
2024/03/19 11:02:50;;;;;;;10.48;3.53;;;15.30;86.00;;;;;;5108724;27;20079;-46
2024/03/19 11:05:21;;;;;;;14.15;3.55;;;15.30;85.60;;;;;;5109875;27;20574;-45
2024/03/19 11:07:54;;;;;;;16.67;3.22;;;15.30;85.90;;;;;;5123290;27;20144;-46
2024/03/19 11:10:41;;;;;;;15.75;3.13;;;15.20;85.60;;;;;;5104750;27;20221;-45
2024/03/19 11:13:09;;;;;;;8.18;3.20;;;15.10;85.90;;;;;;5108754;28;20140;-47
2024/03/19 11:15:37;;;;;;;11.15;3.08;;;15.10;85.50;;;;;;5108606;28;20150;-46
2024/03/19 11:18:13;;;;;;;7.28;2.70;;;15.10;85.60;;;;;;5107371;28;20515;-45
2024/03/19 11:20:47;;;;;;;9.68;3.10;;;15.00;87.00;;;;;;5106164;27;20079;-45
2024/03/19 11:23:27;;;;;;;7.00;2.67;;;15.10;86.90;;;;;;5106929;27;20091;-48
2024/03/19 11:26:00;;;;;;;7.53;2.70;;;15.00;86.20;;;;;;5105896;28;20068;-44
2024/03/19 11:28:29;;;;;;;10.15;2.72;;;14.90;86.60;;;;;;5105531;28;20553;-45
2024/03/19 11:31:02;;;;;;;12.55;2.60;;;15.00;86.60;;;;;;5108389;27;20075;-45
2024/03/19 11:33:30;;;;;;;12.40;2.90;;;14.90;86.40;;;;;;5106677;28;20071;-48
2024/03/19 11:35:58;;;;;;;11.30;2.90;;;14.90;87.00;;;;;;5108826;28;20161;-49
2024/03/19 11:38:25;;;;;;;4.43;1.98;;;15.00;86.80;;;;;;5108135;28;20072;-47
2024/03/19 11:40:51;;;;;;;5.70;1.60;;;14.90;86.30;;;;;;5107004;27;20076;-45
2024/03/19 11:43:19;;;;;;;7.85;1.90;;;14.80;86.30;;;;;;5106621;27;20064;-46
2024/03/19 11:45:47;;;;;;;3.78;1.20;;;14.90;86.80;;;;;;5099345;28;20075;-45
2024/03/19 11:48:21;;;;;;;2.45;1.48;;;14.90;86.70;;;;;;5105696;27;20522;-46
2024/03/19 11:50:58;;;;;;;7.35;1.30;;;14.80;86.80;;;;;;5107983;28;20071;-45
2024/03/19 11:53:29;;;;;;;6.55;1.40;;;14.70;87.50;;;;;;5107992;28;20099;-46
2024/03/19 11:55:56;;;;;;;10.55;1.67;;;14.60;88.90;;;;;;5106657;28;20095;-46
2024/03/19 11:58:24;;;;;;;13.32;1.40;;;14.60;88.60;;;;;;5107692;28;20086;-48
2024/03/19 12:00:51;;;;;;;5.78;1.83;;;14.40;88.60;;;;;;5104276;28;20068;-45
2024/03/19 12:03:20;;;;;;;2.72;1.23;;;14.40;89.20;;;;;;5107148;28;20513;-51
2024/03/19 12:05:50;;;;;;;5.32;1.30;;;14.50;88.70;;;;;;5107930;28;20083;-45
2024/03/19 12:08:17;;;;;;;5.03;1.27;;;14.60;88.60;;;;;;5109821;27;20079;-46
2024/03/19 12:10:47;;;;;;;4.88;1.30;;;14.60;88.30;;;;;;5111799;27;20064;-46
2024/03/19 12:13:13;;;;;;;7.85;1.60;;;14.60;88.50;;;;;;5110019;28;20072;-45
2024/03/19 12:15:40;;;;;;;5.93;1.55;;;14.60;88.90;;;;;;5105731;28;20513;-46
2024/03/19 12:18:08;;;;;;;7.80;1.35;;;14.50;89.30;;;;;;5106972;28;20460;-46
2024/03/19 12:20:37;;;;;;;7.93;2.38;;;14.50;89.40;;;;;;5108569;28;20070;-49
2024/03/19 12:23:04;;;;;;;9.30;2.17;;;14.40;90.00;;;;;;5110431;28;20171;-45
2024/03/19 12:25:32;;;;;;;5.03;1.98;;;14.30;90.80;;;;;;5096236;28;20694;-56
2024/03/19 12:27:59;;;;;;;3.17;1.55;;;14.40;90.80;;;;;;5107777;28;20107;-46
2024/03/19 12:30:25;;;;;;;7.25;1.58;;;14.40;90.60;;;;;;5096926;28;20170;-49
2024/03/19 12:33:00;;;;;;;6.88;2.03;;;14.40;90.50;;;;;;5107735;28;20079;-45
2024/03/19 12:35:33;;;;;;;7.45;1.65;;;14.30;90.80;;;;;;5105258;28;20118;-46
2024/03/19 12:38:01;;;;;;;8.63;1.55;;;14.30;91.00;;;;;;5108224;28;20084;-45
2024/03/19 12:40:28;;;;;;;5.30;1.55;;;14.20;91.10;;;;;;5098616;28;20069;-49
2024/03/19 12:42:57;;;;;;;5.18;1.42;;;14.10;91.10;;;;;;5101412;28;20068;-49
2024/03/19 12:45:24;;;;;;;4.57;1.48;;;14.10;91.40;;;;;;5107149;28;20145;-44
2024/03/19 12:47:51;;;;;;;4.60;1.52;;;14.30;91.40;;;;;;5107833;28;20107;-47
2024/03/19 12:50:18;;;;;;;10.23;2.13;;;14.30;91.40;;;;;;5105051;28;20079;-44